Terminal Aerodrome Forecast
Issued by NWS

Home | Current Version | Previous Version | Text Only | Print | Product List | Glossary On
Versions: 1 2 3 4 5 6 7 8 9 10 11 12 13 14 15 16 17 18 19
000
FTUS43 KGRB 200531
TAFRHI
TAF
KRHI 200531Z 2006/2106 12008G15KT 6SM BR SCT009
      TEMPO 2006/2010 4SM BR BKN008
     FM201000 13008KT P6SM SCT006
      TEMPO 2010/2014 5SM BR BKN006
     FM201400 15010G17KT P6SM BKN015
     FM201500 17010G16KT P6SM OVC020
      TEMPO 2020/2024 3SM -TSRA OVC025CB
     FM210000 30003KT 5SM BR BKN015=

USA.gov is the U.S. government's official web portal to all federal, state and local government web resources and services.